KGYR

Phoenix Goodyear Airport

Goodyear, Arizona, USA
METAR KGYR 221747Z 00000KT 10SM SKC 13/M01 A3013
Observed Flight Rules
Jan-22 @ 17:47 UTC (an hour ago) Visual Flight Rules
Visibility Clouds
10 miles
  • Clear skies
Temperatures Readings
Current 13°C / 55°F
Dewpoint -1°C / 30°F
Humidity 38%
Altimeter 30.13" Hg
Pressure 1020.32 hPa
Elevation 295
METAR KGYR 221747Z 00000KT 10SM SKC 13/M01 A3013
Observed Flight Rules
Jan-22 @ 17:47 UTC
(an hour ago)
VFR
Clouds
  • Clear skies
Temperature Dewpoint
13°C / 55°F -1°C / 30°F
Humidity Altimeter Pressure
38% 30.13" Hg 1020.32 hPa